Peachland, Canada
Current Conditions -  °F | °C
As of 12:00 AM on Saturday 20 Dec 2014 (Local Time) from CYLW Reporting Station
Broken Clouds Broken Clouds  
Wind Chill: 34°   Ceiling: 3400
Heat Index: 34°   Visibility: 9mi
Dew Point: 32°   Wind: 0mph
Humidity: 93%   Direction: NA
Pressure: 29.92"   Gusts: NA
Location:  49.77°N, 119.74°W
Report Text: CYLW 200800Z AUTO 00000KT 9SM SCT030 BKN034 BKN180 BKN200 01/00 A2992 RMK SLP146
Loading
Personal Weather Stations






























Interactive Weather Map New forecast layout! Learn more

10-Day Weather Forecast

Advertisements
Track Severe Weather on mobile